Disclaimer

Please do not use the information listed here in-flight or in-navigation, as they are not provided to us by the airports but are provided by volunteers, so they might be outdated.

Search


Regions


Airport information page

Radio informations:
Tower (TWR) - 129.4 MHz
LANGEN RADAR - 128.5 MHz
LANGEN INFO - 129.875 MHz

Latitude: N/A
Longitude: N/A
Elevation: N/A
Operating hours: N/A
Operating agency: N/A
Timezone: N/A
Fuel: N/A

Recent METARs:
EDLV 171920Z 05005KT 360V110 CAVOK 05/01 Q1030
EDLV 171950Z 05004KT 350V090 CAVOK 04/01 Q1031
EDLV 172020Z 06006KT 010V140 CAVOK 04/00 Q1031

Airport on the map: